createdAt,value
2017-08-29T00:03:38.076Z,34.83
2017-08-29T00:08:24.709Z,28.60
2017-08-29T00:13:11.686Z,36.90
2017-08-29T00:17:58.353Z,32.83
2017-08-29T00:22:44.977Z,29.57
2017-08-29T00:27:32.040Z,27.60
2017-08-29T00:32:18.661Z,25.33
2017-08-29T00:37:05.500Z,24.43
2017-08-29T00:41:52.432Z,24.13
2017-08-29T00:46:39.195Z,25.63
2017-08-29T00:51:25.820Z,24.00
2017-08-29T00:56:12.664Z,27.70
2017-08-29T01:00:59.396Z,36.67
2017-08-29T01:05:46.104Z,35.37
2017-08-29T01:10:32.801Z,40.10
2017-08-29T01:15:19.606Z,33.10
2017-08-29T01:20:06.275Z,35.90
2017-08-29T01:24:52.900Z,36.53
2017-08-29T01:29:39.520Z,35.27
2017-08-29T01:34:26.571Z,35.17
2017-08-29T01:39:13.168Z,43.77
2017-08-29T01:43:59.794Z,40.90
2017-08-29T01:48:46.531Z,42.73
2017-08-29T01:53:33.151Z,42.13
2017-08-29T01:58:19.796Z,38.50
2017-08-29T02:03:06.457Z,40.23
2017-08-29T02:07:53.107Z,40.80
2017-08-29T02:12:39.741Z,43.83
2017-08-29T02:17:26.405Z,47.40
2017-08-29T02:22:13.037Z,41.67
2017-08-29T02:26:59.989Z,43.63
2017-08-29T02:31:46.618Z,37.03
2017-08-29T02:36:33.238Z,35.70
2017-08-29T02:41:20.191Z,40.00
2017-08-29T02:46:06.810Z,39.97
2017-08-29T02:50:53.521Z,48.47
2017-08-29T02:55:40.234Z,33.80
2017-08-29T03:00:26.938Z,42.10
2017-08-29T03:05:13.572Z,41.87
2017-08-29T03:10:00.246Z,41.20
2017-08-29T03:14:47.240Z,35.87
2017-08-29T03:19:33.882Z,35.70
2017-08-29T03:24:20.520Z,45.73
2017-08-29T03:29:07.151Z,47.13
2017-08-29T03:33:53.920Z,47.07
2017-08-29T03:38:40.685Z,43.13
2017-08-29T03:43:27.671Z,41.80
2017-08-29T03:48:14.295Z,38.70
2017-08-29T03:53:00.948Z,39.40
2017-08-29T03:57:47.609Z,42.03
2017-08-29T04:02:34.217Z,37.23
2017-08-29T04:07:20.850Z,47.03
2017-08-29T04:12:07.511Z,51.13
2017-08-29T04:16:54.134Z,44.60
2017-08-29T04:21:40.757Z,56.70
2017-08-29T04:26:27.619Z,52.27
2017-08-29T04:31:14.394Z,51.57
2017-08-29T04:36:01.001Z,48.80
2017-08-29T04:40:47.594Z,51.10
2017-08-29T04:45:34.205Z,49.73
2017-08-29T04:50:20.832Z,55.20
2017-08-29T04:55:07.474Z,57.70
2017-08-29T05:00:01.500Z,45.60
2017-08-29T05:04:48.111Z,56.43
2017-08-29T05:09:34.750Z,66.80
2017-08-29T05:14:21.398Z,59.30
2017-08-29T05:19:08.074Z,67.50
2017-08-29T05:23:54.713Z,47.00
2017-08-29T05:28:41.710Z,59.77
2017-08-29T05:33:28.324Z,50.40
2017-08-29T05:38:14.944Z,65.57
2017-08-29T05:43:01.572Z,76.83
2017-08-29T05:47:48.240Z,86.77
2017-08-29T05:52:35.230Z,78.77
2017-08-29T05:57:21.842Z,97.47
2017-08-29T06:02:08.590Z,102.97
2017-08-29T06:06:55.218Z,120.33
2017-08-29T06:11:41.856Z,90.63
2017-08-29T06:16:28.788Z,73.03
2017-08-29T06:21:15.461Z,69.10
2017-08-29T06:26:02.272Z,69.53
2017-08-29T06:30:49.178Z,97.17
2017-08-29T06:35:35.825Z,78.63
2017-08-29T06:40:22.490Z,77.97
2017-08-29T06:45:09.558Z,68.67
2017-08-29T06:49:56.184Z,81.53
2017-08-29T06:54:42.851Z,80.37
2017-08-29T06:59:30.130Z,73.60
2017-08-29T07:04:16.751Z,93.23
2017-08-29T07:09:03.659Z,72.20
2017-08-29T07:13:50.295Z,77.93
2017-08-29T07:18:36.962Z,74.40
2017-08-29T07:23:23.569Z,83.17
2017-08-29T07:28:10.164Z,69.90
2017-08-29T07:32:57.295Z,65.10
2017-08-29T07:37:43.921Z,56.60
2017-08-29T07:42:30.634Z,68.47
2017-08-29T07:47:17.278Z,62.20
2017-08-29T07:52:04.131Z,54.27
2017-08-29T07:56:51.214Z,58.20
2017-08-29T08:01:37.869Z,60.20
2017-08-29T08:06:24.487Z,59.83
2017-08-29T08:11:11.135Z,60.73
2017-08-29T08:15:57.909Z,60.40
2017-08-29T08:20:44.601Z,45.70
2017-08-29T08:25:31.589Z,50.63
2017-08-29T08:30:18.227Z,51.20
2017-08-29T08:35:05.291Z,48.17
2017-08-29T08:39:51.925Z,51.60
2017-08-29T08:44:38.565Z,46.13
2017-08-29T08:49:25.259Z,50.17
2017-08-29T08:54:11.988Z,50.93
2017-08-29T08:58:58.678Z,50.93
2017-08-29T09:03:45.650Z,43.47
2017-08-29T09:08:32.322Z,36.17
2017-08-29T09:13:19.212Z,33.03
2017-08-29T09:18:05.834Z,33.13
2017-08-29T09:22:52.475Z,32.53
2017-08-29T09:27:39.546Z,33.20
2017-08-29T09:32:26.245Z,30.53
2017-08-29T09:37:12.991Z,28.93
2017-08-29T09:41:59.623Z,27.13
2017-08-29T09:46:46.245Z,34.63
2017-08-29T09:51:32.901Z,23.40
2017-08-29T09:56:19.879Z,24.07
2017-08-29T10:01:07.012Z,21.03
2017-08-29T10:05:53.649Z,23.93
2017-08-29T10:10:40.344Z,20.70
2017-08-29T10:15:26.980Z,24.63
2017-08-29T10:20:13.695Z,18.03
2017-08-29T10:25:00.831Z,18.00
2017-08-29T10:29:47.433Z,17.67
2017-08-29T10:34:34.229Z,17.90
2017-08-29T10:39:20.845Z,16.40
2017-08-29T10:44:07.799Z,14.70
2017-08-29T10:48:54.469Z,18.53
2017-08-29T10:53:42.045Z,17.60
2017-08-29T10:58:28.730Z,53.87
2017-08-29T11:03:15.391Z,33.40
2017-08-29T11:08:02.067Z,10.63
2017-08-29T11:12:48.718Z,18.70
2017-08-29T11:17:35.450Z,18.77
2017-08-29T11:22:22.139Z,17.50
2017-08-29T11:27:08.757Z,13.57
2017-08-29T11:31:55.375Z,9.13
2017-08-29T11:36:42.005Z,8.90
2017-08-29T11:41:29.101Z,15.50
2017-08-29T11:46:15.785Z,9.03
2017-08-29T11:51:02.442Z,18.47
2017-08-29T11:55:49.077Z,7.80
2017-08-29T12:00:35.712Z,8.90
2017-08-29T12:05:22.364Z,7.33
2017-08-29T12:10:09.434Z,5.83
2017-08-29T12:14:56.065Z,6.50
2017-08-29T12:19:42.771Z,9.67
2017-08-29T12:24:29.605Z,7.07
2017-08-29T12:29:16.272Z,7.17
2017-08-29T12:34:03.278Z,7.87
2017-08-29T12:38:49.912Z,6.67
2017-08-29T12:43:36.561Z,7.70
2017-08-29T12:48:23.226Z,6.13
2017-08-29T12:53:10.650Z,9.60
2017-08-29T12:57:57.372Z,5.70
2017-08-29T13:02:44.007Z,7.60
2017-08-29T13:07:30.719Z,9.83
2017-08-29T13:12:17.650Z,8.93
2017-08-29T13:17:04.276Z,6.10
2017-08-29T13:21:51.302Z,7.37
2017-08-29T13:26:38.001Z,7.17
2017-08-29T13:31:24.738Z,6.33
2017-08-29T13:36:11.537Z,5.07
2017-08-29T13:40:58.293Z,5.43
2017-08-29T13:45:45.202Z,7.23
2017-08-29T13:50:31.802Z,6.90
2017-08-29T13:55:18.551Z,4.87
2017-08-29T14:00:05.187Z,5.53
2017-08-29T14:04:51.811Z,10.50
2017-08-29T14:09:38.766Z,6.90
2017-08-29T14:14:25.379Z,7.40
2017-08-29T14:19:11.996Z,11.47
2017-08-29T14:23:58.829Z,10.17
2017-08-29T14:28:45.491Z,6.50
2017-08-29T14:33:32.549Z,11.33
2017-08-29T14:38:19.581Z,6.33
2017-08-29T14:43:06.252Z,7.43
2017-08-29T14:48:11.349Z,6.40
2017-08-29T14:52:58.041Z,5.93
2017-08-29T14:57:44.784Z,4.97
2017-08-29T15:02:31.513Z,5.63
2017-08-29T15:07:18.555Z,5.40
2017-08-29T15:12:05.215Z,6.07
2017-08-29T15:16:51.847Z,5.77
2017-08-29T15:21:38.534Z,4.63
2017-08-29T15:26:25.203Z,4.80
2017-08-29T15:31:12.047Z,5.50
2017-08-29T15:35:58.989Z,10.23
2017-08-29T15:40:45.602Z,9.07
2017-08-29T15:45:32.286Z,4.33
2017-08-29T15:50:18.942Z,6.03
2017-08-29T15:55:05.872Z,6.90
2017-08-29T15:59:52.514Z,3.80
2017-08-29T16:04:39.169Z,5.53
2017-08-29T16:09:25.781Z,5.67
2017-08-29T16:14:12.365Z,8.00
2017-08-29T16:18:58.993Z,8.97
2017-08-29T16:23:46.005Z,4.67
2017-08-29T16:28:32.624Z,5.10
2017-08-29T16:33:19.373Z,9.23
2017-08-29T16:38:06.165Z,12.70
2017-08-29T16:42:52.872Z,8.73
2017-08-29T16:47:39.578Z,8.77
2017-08-29T16:52:26.274Z,9.33
2017-08-29T16:57:13.261Z,9.87
2017-08-29T17:01:59.885Z,8.73
2017-08-29T17:06:46.573Z,5.47
2017-08-29T17:11:33.621Z,5.53
2017-08-29T17:16:20.234Z,5.27
2017-08-29T17:21:06.874Z,6.57
2017-08-29T17:25:53.518Z,6.03
2017-08-29T17:30:40.907Z,5.33
2017-08-29T17:35:27.528Z,6.13
2017-08-29T17:40:14.433Z,8.13
2017-08-29T17:45:01.046Z,6.00
2017-08-29T17:49:47.911Z,4.43
2017-08-29T17:54:34.635Z,5.60
2017-08-29T17:59:21.271Z,6.00
2017-08-29T18:04:08.083Z,8.63
2017-08-29T18:08:55.230Z,7.27
2017-08-29T18:13:41.918Z,7.23
2017-08-29T18:18:28.682Z,9.30
2017-08-29T18:23:15.479Z,8.33
2017-08-29T18:28:02.306Z,7.30
2017-08-29T18:32:49.128Z,5.53
2017-08-29T18:37:36.184Z,8.37
2017-08-29T18:42:22.865Z,5.13
2017-08-29T18:47:09.708Z,6.57
2017-08-29T18:51:56.497Z,9.50
2017-08-29T18:56:43.264Z,6.40
2017-08-29T19:01:30.333Z,11.70
2017-08-29T19:06:17.078Z,7.50
2017-08-29T19:11:03.883Z,17.17
2017-08-29T19:15:51.028Z,15.13
2017-08-29T19:20:38.155Z,9.37
2017-08-29T19:25:24.987Z,8.13
2017-08-29T19:30:11.742Z,7.80
2017-08-29T19:34:58.574Z,10.70
2017-08-29T19:39:45.650Z,12.30
2017-08-29T19:44:32.357Z,12.60
2017-08-29T19:49:19.057Z,10.20
2017-08-29T19:54:05.814Z,9.20
2017-08-29T19:58:52.534Z,13.20
2017-08-29T20:03:39.266Z,11.87
2017-08-29T20:08:26.371Z,11.43
2017-08-29T20:13:13.162Z,9.63
2017-08-29T20:17:59.943Z,9.33
2017-08-29T20:22:46.788Z,8.43
2017-08-29T20:27:33.540Z,9.03
2017-08-29T20:32:20.237Z,9.40
2017-08-29T20:37:07.037Z,8.37
2017-08-29T20:41:54.346Z,13.60
2017-08-29T20:46:41.035Z,9.10
2017-08-29T20:51:27.821Z,8.90
2017-08-29T20:56:14.543Z,11.60
2017-08-29T21:01:01.374Z,14.57
2017-08-29T21:05:48.076Z,11.40
2017-08-29T21:10:34.794Z,14.00
2017-08-29T21:15:21.806Z,12.90
2017-08-29T21:20:08.462Z,9.10
2017-08-29T21:24:55.109Z,12.77
2017-08-29T21:29:41.846Z,12.17
2017-08-29T21:34:28.843Z,11.00
2017-08-29T21:39:15.498Z,14.20
2017-08-29T21:44:02.524Z,26.33
2017-08-29T21:48:49.177Z,19.50
2017-08-29T21:53:35.873Z,14.97
2017-08-29T21:58:22.680Z,15.43
2017-08-29T22:03:09.331Z,13.63
2017-08-29T22:07:56.345Z,17.83
2017-08-29T22:12:42.961Z,19.13
2017-08-29T22:17:29.732Z,16.70
2017-08-29T22:22:17.372Z,17.97
2017-08-29T22:27:04.025Z,18.60
2017-08-29T22:31:57.837Z,18.17
2017-08-29T22:36:44.505Z,15.53
2017-08-29T22:41:31.497Z,19.53
2017-08-29T22:46:18.114Z,13.77
2017-08-29T22:51:04.781Z,14.77
2017-08-29T22:55:51.420Z,18.30
2017-08-29T23:00:38.380Z,14.50
2017-08-29T23:05:24.991Z,14.23
2017-08-29T23:10:11.765Z,14.00
2017-08-29T23:14:59.123Z,16.20
2017-08-29T23:19:45.765Z,15.00
2017-08-29T23:24:32.361Z,19.10
2017-08-29T23:29:19.359Z,15.67
2017-08-29T23:34:06.111Z,14.20
2017-08-29T23:38:52.717Z,17.30
2017-08-29T23:43:39.320Z,17.13
2017-08-29T23:48:25.932Z,17.93
2017-08-29T23:53:12.564Z,16.50
2017-08-29T23:57:59.184Z,18.43
